sensor_id;sensor_type;location;lat;lon;timestamp;temperature;humidity
23102;DHT22;11720;51.214;22.574;2022-12-29T00:02:15;2.70;99.90
23102;DHT22;11720;51.214;22.574;2022-12-29T00:04:41;2.70;99.90
23102;DHT22;11720;51.214;22.574;2022-12-29T00:07:07;2.70;99.90
23102;DHT22;11720;51.214;22.574;2022-12-29T00:09:34;2.70;99.90
23102;DHT22;11720;51.214;22.574;2022-12-29T00:12:01;2.70;99.90
23102;DHT22;11720;51.214;22.574;2022-12-29T00:14:27;2.70;99.90
23102;DHT22;11720;51.214;22.574;2022-12-29T00:17:11;2.70;99.90
23102;DHT22;11720;51.214;22.574;2022-12-29T00:19:37;2.60;99.90
23102;DHT22;11720;51.214;22.574;2022-12-29T00:25:07;2.60;99.90
23102;DHT22;11720;51.214;22.574;2022-12-29T00:27:52;2.60;99.90
23102;DHT22;11720;51.214;22.574;2022-12-29T00:30:36;2.60;99.90
23102;DHT22;11720;51.214;22.574;2022-12-29T00:33:22;2.50;99.90
23102;DHT22;11720;51.214;22.574;2022-12-29T00:39:02;2.60;99.90
23102;DHT22;11720;51.214;22.574;2022-12-29T00:41:48;2.60;99.90
23102;DHT22;11720;51.214;22.574;2022-12-29T00:44:32;2.50;99.90
23102;DHT22;11720;51.214;22.574;2022-12-29T00:46:58;2.60;99.90
23102;DHT22;11720;51.214;22.574;2022-12-29T00:49:27;2.50;99.90
23102;DHT22;11720;51.214;22.574;2022-12-29T00:52:03;2.50;99.90
23102;DHT22;11720;51.214;22.574;2022-12-29T00:54:33;2.50;99.90
23102;DHT22;11720;51.214;22.574;2022-12-29T00:56:59;2.50;99.90
23102;DHT22;11720;51.214;22.574;2022-12-29T00:59:25;2.50;99.90
23102;DHT22;11720;51.214;22.574;2022-12-29T01:01:52;2.50;99.90
23102;DHT22;11720;51.214;22.574;2022-12-29T01:04:19;2.50;99.90
23102;DHT22;11720;51.214;22.574;2022-12-29T01:06:45;2.40;99.90
23102;DHT22;11720;51.214;22.574;2022-12-29T01:09:11;2.40;99.90
23102;DHT22;11720;51.214;22.574;2022-12-29T01:11:55;2.40;99.90
23102;DHT22;11720;51.214;22.574;2022-12-29T01:14:22;2.40;99.90
23102;DHT22;11720;51.214;22.574;2022-12-29T01:16:47;2.40;99.90
23102;DHT22;11720;51.214;22.574;2022-12-29T01:19:14;2.40;99.90
23102;DHT22;11720;51.214;22.574;2022-12-29T01:21:40;2.40;99.90
23102;DHT22;11720;51.214;22.574;2022-12-29T01:24:06;2.40;99.90
23102;DHT22;11720;51.214;22.574;2022-12-29T01:26:32;2.40;99.90
23102;DHT22;11720;51.214;22.574;2022-12-29T01:28:57;2.40;99.90
23102;DHT22;11720;51.214;22.574;2022-12-29T01:31:23;2.40;99.90
23102;DHT22;11720;51.214;22.574;2022-12-29T01:33:49;2.40;99.90
23102;DHT22;11720;51.214;22.574;2022-12-29T01:36:16;2.40;99.90
23102;DHT22;11720;51.214;22.574;2022-12-29T01:38:43;2.40;99.90
23102;DHT22;11720;51.214;22.574;2022-12-29T01:41:11;2.40;99.90
23102;DHT22;11720;51.214;22.574;2022-12-29T01:43:53;2.50;99.90
23102;DHT22;11720;51.214;22.574;2022-12-29T01:46:28;2.50;99.90
23102;DHT22;11720;51.214;22.574;2022-12-29T01:49:05;2.50;99.90
23102;DHT22;11720;51.214;22.574;2022-12-29T01:51:45;2.50;99.90
23102;DHT22;11720;51.214;22.574;2022-12-29T01:54:36;2.50;99.90
23102;DHT22;11720;51.214;22.574;2022-12-29T01:57:07;2.50;99.90
23102;DHT22;11720;51.214;22.574;2022-12-29T01:59:37;2.50;99.90
23102;DHT22;11720;51.214;22.574;2022-12-29T02:02:06;2.50;99.90
23102;DHT22;11720;51.214;22.574;2022-12-29T02:04:33;2.40;99.90
23102;DHT22;11720;51.214;22.574;2022-12-29T02:07:04;2.50;99.90
23102;DHT22;11720;51.214;22.574;2022-12-29T02:09:31;2.50;99.90
23102;DHT22;11720;51.214;22.574;2022-12-29T02:11:58;2.50;99.90
23102;DHT22;11720;51.214;22.574;2022-12-29T02:14:24;2.50;99.90
23102;DHT22;11720;51.214;22.574;2022-12-29T02:31:46;2.40;99.90
23102;DHT22;11720;51.214;22.574;2022-12-29T02:37:03;2.40;99.90
23102;DHT22;11720;51.214;22.574;2022-12-29T02:39:54;2.40;99.90
23102;DHT22;11720;51.214;22.574;2022-12-29T02:45:05;2.40;99.90
23102;DHT22;11720;51.214;22.574;2022-12-29T02:48:00;2.40;99.90
23102;DHT22;11720;51.214;22.574;2022-12-29T02:50:38;2.40;99.90
23102;DHT22;11720;51.214;22.574;2022-12-29T02:53:14;2.40;99.90
23102;DHT22;11720;51.214;22.574;2022-12-29T02:55:48;2.40;99.90
23102;DHT22;11720;51.214;22.574;2022-12-29T02:58:20;2.40;99.90
23102;DHT22;11720;51.214;22.574;2022-12-29T03:12:02;2.40;99.90
23102;DHT22;11720;51.214;22.574;2022-12-29T03:14:47;2.40;99.90
23102;DHT22;11720;51.214;22.574;2022-12-29T03:20:04;2.40;99.90
23102;DHT22;11720;51.214;22.574;2022-12-29T03:22:36;2.40;99.90
23102;DHT22;11720;51.214;22.574;2022-12-29T03:25:22;2.50;99.90
23102;DHT22;11720;51.214;22.574;2022-12-29T03:28:06;2.40;99.90
23102;DHT22;11720;51.214;22.574;2022-12-29T03:30:34;2.50;99.90
23102;DHT22;11720;51.214;22.574;2022-12-29T03:33:04;2.40;99.90
23102;DHT22;11720;51.214;22.574;2022-12-29T03:35:36;2.40;99.90
23102;DHT22;11720;51.214;22.574;2022-12-29T03:40:50;2.60;99.90
23102;DHT22;11720;51.214;22.574;2022-12-29T03:43:17;2.50;99.90
23102;DHT22;11720;51.214;22.574;2022-12-29T03:45:43;2.60;99.90
23102;DHT22;11720;51.214;22.574;2022-12-29T03:48:08;2.60;99.90
23102;DHT22;11720;51.214;22.574;2022-12-29T03:50:34;2.50;99.90
23102;DHT22;11720;51.214;22.574;2022-12-29T03:53:00;2.50;99.90
23102;DHT22;11720;51.214;22.574;2022-12-29T03:55:25;2.50;99.90
23102;DHT22;11720;51.214;22.574;2022-12-29T03:57:51;2.50;99.90
23102;DHT22;11720;51.214;22.574;2022-12-29T04:00:17;2.50;99.90
23102;DHT22;11720;51.214;22.574;2022-12-29T04:02:42;2.50;99.90
23102;DHT22;11720;51.214;22.574;2022-12-29T04:05:08;2.50;99.90
23102;DHT22;11720;51.214;22.574;2022-12-29T04:07:34;2.50;99.90
23102;DHT22;11720;51.214;22.574;2022-12-29T04:09:59;2.50;99.90
23102;DHT22;11720;51.214;22.574;2022-12-29T04:12:25;2.40;99.90
23102;DHT22;11720;51.214;22.574;2022-12-29T04:14:51;2.50;99.90
23102;DHT22;11720;51.214;22.574;2022-12-29T04:19:42;2.50;99.90
23102;DHT22;11720;51.214;22.574;2022-12-29T04:22:08;2.40;99.90
23102;DHT22;11720;51.214;22.574;2022-12-29T04:24:33;2.40;99.90
23102;DHT22;11720;51.214;22.574;2022-12-29T04:26:59;2.40;99.90
23102;DHT22;11720;51.214;22.574;2022-12-29T04:29:25;2.40;99.90
23102;DHT22;11720;51.214;22.574;2022-12-29T04:31:50;2.40;99.90
23102;DHT22;11720;51.214;22.574;2022-12-29T04:34:16;2.40;99.90
23102;DHT22;11720;51.214;22.574;2022-12-29T04:36:42;2.50;99.90
23102;DHT22;11720;51.214;22.574;2022-12-29T04:39:07;2.40;99.90
23102;DHT22;11720;51.214;22.574;2022-12-29T04:41:33;2.50;99.90
23102;DHT22;11720;51.214;22.574;2022-12-29T04:43:59;2.50;99.90
23102;DHT22;11720;51.214;22.574;2022-12-29T04:46:24;2.50;99.90
23102;DHT22;11720;51.214;22.574;2022-12-29T04:48:50;2.50;99.90
23102;DHT22;11720;51.214;22.574;2022-12-29T04:51:16;2.50;99.90
23102;DHT22;11720;51.214;22.574;2022-12-29T04:53:41;2.50;99.90
23102;DHT22;11720;51.214;22.574;2022-12-29T04:56:07;2.50;99.90
23102;DHT22;11720;51.214;22.574;2022-12-29T04:58:35;2.50;99.90
23102;DHT22;11720;51.214;22.574;2022-12-29T05:01:00;2.50;99.90
23102;DHT22;11720;51.214;22.574;2022-12-29T05:03:26;2.50;99.90
23102;DHT22;11720;51.214;22.574;2022-12-29T05:05:56;2.60;99.90
23102;DHT22;11720;51.214;22.574;2022-12-29T05:08:22;2.60;99.90
23102;DHT22;11720;51.214;22.574;2022-12-29T05:10:50;2.70;99.90
23102;DHT22;11720;51.214;22.574;2022-12-29T05:13:16;2.70;99.90
23102;DHT22;11720;51.214;22.574;2022-12-29T05:15:49;2.70;99.90
23102;DHT22;11720;51.214;22.574;2022-12-29T05:18:16;2.70;99.90
23102;DHT22;11720;51.214;22.574;2022-12-29T05:20:41;2.70;99.90
23102;DHT22;11720;51.214;22.574;2022-12-29T05:23:07;2.70;99.90
23102;DHT22;11720;51.214;22.574;2022-12-29T05:25:33;2.70;99.90
23102;DHT22;11720;51.214;22.574;2022-12-29T05:27:58;2.70;99.90
23102;DHT22;11720;51.214;22.574;2022-12-29T05:30:24;2.80;99.90
23102;DHT22;11720;51.214;22.574;2022-12-29T05:32:49;2.80;99.90
23102;DHT22;11720;51.214;22.574;2022-12-29T05:35:15;2.80;99.90
23102;DHT22;11720;51.214;22.574;2022-12-29T05:37:41;2.80;99.90
23102;DHT22;11720;51.214;22.574;2022-12-29T05:40:10;2.80;99.90
23102;DHT22;11720;51.214;22.574;2022-12-29T05:42:36;2.80;99.90
23102;DHT22;11720;51.214;22.574;2022-12-29T05:45:01;2.70;99.90
23102;DHT22;11720;51.214;22.574;2022-12-29T05:47:27;2.80;99.90
23102;DHT22;11720;51.214;22.574;2022-12-29T05:49:52;2.70;99.90
23102;DHT22;11720;51.214;22.574;2022-12-29T05:52:18;2.70;99.90
23102;DHT22;11720;51.214;22.574;2022-12-29T05:54:44;2.70;99.90
23102;DHT22;11720;51.214;22.574;2022-12-29T05:57:10;2.70;99.90
23102;DHT22;11720;51.214;22.574;2022-12-29T05:59:35;2.70;99.90
23102;DHT22;11720;51.214;22.574;2022-12-29T06:02:01;2.70;99.90
23102;DHT22;11720;51.214;22.574;2022-12-29T06:04:27;2.70;99.90
23102;DHT22;11720;51.214;22.574;2022-12-29T06:06:52;2.70;99.90
23102;DHT22;11720;51.214;22.574;2022-12-29T06:09:18;2.70;99.90
23102;DHT22;11720;51.214;22.574;2022-12-29T06:11:43;2.70;99.90
23102;DHT22;11720;51.214;22.574;2022-12-29T06:14:09;2.70;99.90
23102;DHT22;11720;51.214;22.574;2022-12-29T06:16:35;2.70;99.90
23102;DHT22;11720;51.214;22.574;2022-12-29T06:19:01;2.70;99.90
23102;DHT22;11720;51.214;22.574;2022-12-29T06:21:27;2.70;99.90
23102;DHT22;11720;51.214;22.574;2022-12-29T06:23:54;2.70;99.90
23102;DHT22;11720;51.214;22.574;2022-12-29T06:26:20;3.00;99.90
23102;DHT22;11720;51.214;22.574;2022-12-29T06:28:45;2.80;99.90
23102;DHT22;11720;51.214;22.574;2022-12-29T06:31:11;2.80;99.90
23102;DHT22;11720;51.214;22.574;2022-12-29T06:33:38;2.70;99.90
23102;DHT22;11720;51.214;22.574;2022-12-29T06:36:07;2.80;99.90
23102;DHT22;11720;51.214;22.574;2022-12-29T06:38:33;2.80;99.90
23102;DHT22;11720;51.214;22.574;2022-12-29T06:41:00;2.80;99.90
23102;DHT22;11720;51.214;22.574;2022-12-29T06:43:26;2.80;99.90
23102;DHT22;11720;51.214;22.574;2022-12-29T06:45:51;2.90;99.90
23102;DHT22;11720;51.214;22.574;2022-12-29T06:48:17;2.90;99.90
23102;DHT22;11720;51.214;22.574;2022-12-29T06:50:43;2.90;99.90
23102;DHT22;11720;51.214;22.574;2022-12-29T06:53:08;2.90;99.90
23102;DHT22;11720;51.214;22.574;2022-12-29T06:55:34;3.00;99.90
23102;DHT22;11720;51.214;22.574;2022-12-29T06:57:59;3.00;99.90
23102;DHT22;11720;51.214;22.574;2022-12-29T07:00:26;3.00;99.90
23102;DHT22;11720;51.214;22.574;2022-12-29T07:05:18;3.00;99.90
23102;DHT22;11720;51.214;22.574;2022-12-29T07:07:43;3.10;99.90
23102;DHT22;11720;51.214;22.574;2022-12-29T07:10:09;3.10;99.90
23102;DHT22;11720;51.214;22.574;2022-12-29T07:12:35;3.10;99.90
23102;DHT22;11720;51.214;22.574;2022-12-29T07:15:01;3.10;99.90
23102;DHT22;11720;51.214;22.574;2022-12-29T07:17:26;3.20;99.90
23102;DHT22;11720;51.214;22.574;2022-12-29T07:19:52;3.20;99.90
23102;DHT22;11720;51.214;22.574;2022-12-29T07:22:18;3.20;99.90
23102;DHT22;11720;51.214;22.574;2022-12-29T07:24:43;3.20;99.90
23102;DHT22;11720;51.214;22.574;2022-12-29T07:27:09;3.20;99.90
23102;DHT22;11720;51.214;22.574;2022-12-29T07:29:37;3.30;99.90
23102;DHT22;11720;51.214;22.574;2022-12-29T07:32:04;3.30;99.90
23102;DHT22;11720;51.214;22.574;2022-12-29T07:34:29;3.30;99.90
23102;DHT22;11720;51.214;22.574;2022-12-29T07:36:55;3.40;99.90
23102;DHT22;11720;51.214;22.574;2022-12-29T07:39:21;3.40;99.90
23102;DHT22;11720;51.214;22.574;2022-12-29T07:44:13;3.40;99.90
23102;DHT22;11720;51.214;22.574;2022-12-29T07:46:39;3.40;99.90
23102;DHT22;11720;51.214;22.574;2022-12-29T07:49:05;3.50;99.90
23102;DHT22;11720;51.214;22.574;2022-12-29T07:51:30;3.50;99.90
23102;DHT22;11720;51.214;22.574;2022-12-29T07:53:57;3.50;99.90
23102;DHT22;11720;51.214;22.574;2022-12-29T07:56:25;3.50;99.90
23102;DHT22;11720;51.214;22.574;2022-12-29T07:58:51;2.70;99.90
23102;DHT22;11720;51.214;22.574;2022-12-29T08:03:42;3.60;99.90
23102;DHT22;11720;51.214;22.574;2022-12-29T08:06:11;3.70;99.90
23102;DHT22;11720;51.214;22.574;2022-12-29T08:08:37;3.70;99.90
23102;DHT22;11720;51.214;22.574;2022-12-29T08:11:04;3.70;99.90
23102;DHT22;11720;51.214;22.574;2022-12-29T08:15:57;3.80;99.90
23102;DHT22;11720;51.214;22.574;2022-12-29T08:18:24;3.70;99.90
23102;DHT22;11720;51.214;22.574;2022-12-29T08:20:49;3.80;99.90
23102;DHT22;11720;51.214;22.574;2022-12-29T08:23:15;3.80;99.90
23102;DHT22;11720;51.214;22.574;2022-12-29T08:25:41;3.80;99.90
23102;DHT22;11720;51.214;22.574;2022-12-29T08:28:07;3.80;99.90
23102;DHT22;11720;51.214;22.574;2022-12-29T08:30:32;3.80;99.90
23102;DHT22;11720;51.214;22.574;2022-12-29T08:32:58;3.90;99.90
23102;DHT22;11720;51.214;22.574;2022-12-29T08:35:24;3.90;99.90
23102;DHT22;11720;51.214;22.574;2022-12-29T08:37:49;3.90;99.90
23102;DHT22;11720;51.214;22.574;2022-12-29T08:40:15;3.90;99.90
23102;DHT22;11720;51.214;22.574;2022-12-29T08:42:41;3.90;99.90
23102;DHT22;11720;51.214;22.574;2022-12-29T08:45:07;3.90;99.90
23102;DHT22;11720;51.214;22.574;2022-12-29T08:47:34;3.90;99.90
23102;DHT22;11720;51.214;22.574;2022-12-29T08:49:59;3.90;99.90
23102;DHT22;11720;51.214;22.574;2022-12-29T08:54:51;3.90;99.90
23102;DHT22;11720;51.214;22.574;2022-12-29T08:59:43;3.90;99.90
23102;DHT22;11720;51.214;22.574;2022-12-29T09:02:11;4.00;99.90
23102;DHT22;11720;51.214;22.574;2022-12-29T09:04:37;4.00;99.90
23102;DHT22;11720;51.214;22.574;2022-12-29T09:07:02;4.00;99.90
23102;DHT22;11720;51.214;22.574;2022-12-29T09:09:28;4.00;99.90
23102;DHT22;11720;51.214;22.574;2022-12-29T09:11:54;4.10;99.90
23102;DHT22;11720;51.214;22.574;2022-12-29T09:14:19;4.20;99.90
23102;DHT22;11720;51.214;22.574;2022-12-29T09:19:31;4.20;99.90
23102;DHT22;11720;51.214;22.574;2022-12-29T09:21:57;4.30;99.90
23102;DHT22;11720;51.214;22.574;2022-12-29T09:24:22;4.30;99.90
23102;DHT22;11720;51.214;22.574;2022-12-29T09:26:48;4.40;99.90
23102;DHT22;11720;51.214;22.574;2022-12-29T09:31:40;4.50;99.90
23102;DHT22;11720;51.214;22.574;2022-12-29T09:34:05;4.50;99.90
23102;DHT22;11720;51.214;22.574;2022-12-29T09:36:31;4.60;99.90
23102;DHT22;11720;51.214;22.574;2022-12-29T09:38:56;4.60;99.90
23102;DHT22;11720;51.214;22.574;2022-12-29T09:41:30;4.80;99.90
23102;DHT22;11720;51.214;22.574;2022-12-29T09:44:23;4.90;99.90
23102;DHT22;11720;51.214;22.574;2022-12-29T09:46:52;5.00;99.90
23102;DHT22;11720;51.214;22.574;2022-12-29T09:52:19;5.00;99.90
23102;DHT22;11720;51.214;22.574;2022-12-29T09:55:26;5.00;99.90
23102;DHT22;11720;51.214;22.574;2022-12-29T09:58:35;5.10;99.90
23102;DHT22;11720;51.214;22.574;2022-12-29T10:03:48;5.10;99.90
23102;DHT22;11720;51.214;22.574;2022-12-29T10:11:47;5.10;99.90
23102;DHT22;11720;51.214;22.574;2022-12-29T10:17:36;5.20;99.90
23102;DHT22;11720;51.214;22.574;2022-12-29T10:25:19;5.30;99.90
23102;DHT22;11720;51.214;22.574;2022-12-29T10:27:48;5.30;99.90
23102;DHT22;11720;51.214;22.574;2022-12-29T10:30:14;5.30;99.90
23102;DHT22;11720;51.214;22.574;2022-12-29T10:32:49;5.50;99.90
23102;DHT22;11720;51.214;22.574;2022-12-29T10:35:25;5.30;99.90
23102;DHT22;11720;51.214;22.574;2022-12-29T10:38:25;5.30;99.90
23102;DHT22;11720;51.214;22.574;2022-12-29T10:41:18;5.40;99.90
23102;DHT22;11720;51.214;22.574;2022-12-29T10:43:50;5.40;99.90
23102;DHT22;11720;51.214;22.574;2022-12-29T10:46:19;5.50;99.90
23102;DHT22;11720;51.214;22.574;2022-12-29T10:48:47;5.50;99.90
23102;DHT22;11720;51.214;22.574;2022-12-29T10:51:21;5.60;99.90
23102;DHT22;11720;51.214;22.574;2022-12-29T10:53:57;5.60;99.90
23102;DHT22;11720;51.214;22.574;2022-12-29T10:56:34;5.70;99.90
23102;DHT22;11720;51.214;22.574;2022-12-29T10:59:32;5.70;99.90
23102;DHT22;11720;51.214;22.574;2022-12-29T11:07:18;5.90;99.90
23102;DHT22;11720;51.214;22.574;2022-12-29T11:09:45;6.00;99.90
23102;DHT22;11720;51.214;22.574;2022-12-29T11:12:37;6.00;99.90
23102;DHT22;11720;51.214;22.574;2022-12-29T11:20:35;6.20;99.90
23102;DHT22;11720;51.214;22.574;2022-12-29T11:23:04;6.50;99.90
23102;DHT22;11720;51.214;22.574;2022-12-29T11:25:30;6.60;99.90
23102;DHT22;11720;51.214;22.574;2022-12-29T11:28:15;6.70;99.90
23102;DHT22;11720;51.214;22.574;2022-12-29T11:30:42;6.80;99.90
23102;DHT22;11720;51.214;22.574;2022-12-29T11:33:09;6.80;99.90
23102;DHT22;11720;51.214;22.574;2022-12-29T11:35:45;6.90;99.90
23102;DHT22;11720;51.214;22.574;2022-12-29T11:38:26;6.80;99.90
23102;DHT22;11720;51.214;22.574;2022-12-29T11:40:56;6.80;99.90
23102;DHT22;11720;51.214;22.574;2022-12-29T11:43:34;6.80;99.90
23102;DHT22;11720;51.214;22.574;2022-12-29T11:48:40;7.30;99.90
23102;DHT22;11720;51.214;22.574;2022-12-29T11:51:08;7.40;99.90
23102;DHT22;11720;51.214;22.574;2022-12-29T11:53:47;8.00;99.90
23102;DHT22;11720;51.214;22.574;2022-12-29T11:56:16;8.30;99.90
23102;DHT22;11720;51.214;22.574;2022-12-29T11:58:42;8.20;99.90
23102;DHT22;11720;51.214;22.574;2022-12-29T12:03:47;7.60;99.90
23102;DHT22;11720;51.214;22.574;2022-12-29T12:06:20;7.20;99.90
23102;DHT22;11720;51.214;22.574;2022-12-29T12:09:00;7.00;99.90
23102;DHT22;11720;51.214;22.574;2022-12-29T12:11:36;6.90;99.90
23102;DHT22;11720;51.214;22.574;2022-12-29T12:14:21;6.80;99.90
23102;DHT22;11720;51.214;22.574;2022-12-29T12:19:34;6.80;99.90
23102;DHT22;11720;51.214;22.574;2022-12-29T12:27:41;6.70;99.90
23102;DHT22;11720;51.214;22.574;2022-12-29T12:30:18;6.70;99.90
23102;DHT22;11720;51.214;22.574;2022-12-29T12:33:22;6.70;99.90
23102;DHT22;11720;51.214;22.574;2022-12-29T12:41:16;6.70;99.90
23102;DHT22;11720;51.214;22.574;2022-12-29T12:44:12;6.60;99.90
23102;DHT22;11720;51.214;22.574;2022-12-29T12:50:12;6.50;99.90
23102;DHT22;11720;51.214;22.574;2022-12-29T13:03:29;6.60;99.90
23102;DHT22;11720;51.214;22.574;2022-12-29T13:09:08;6.60;99.90
23102;DHT22;11720;51.214;22.574;2022-12-29T13:22:36;6.80;99.90
23102;DHT22;11720;51.214;22.574;2022-12-29T13:27:43;6.80;99.90
23102;DHT22;11720;51.214;22.574;2022-12-29T13:30:21;6.80;99.90
23102;DHT22;11720;51.214;22.574;2022-12-29T13:38:13;6.80;99.90
23102;DHT22;11720;51.214;22.574;2022-12-29T13:40:48;6.70;99.90
23102;DHT22;11720;51.214;22.574;2022-12-29T13:43:16;6.70;99.90
23102;DHT22;11720;51.214;22.574;2022-12-29T13:45:44;6.60;99.90
23102;DHT22;11720;51.214;22.574;2022-12-29T13:50:38;6.60;99.90
23102;DHT22;11720;51.214;22.574;2022-12-29T14:02:10;6.40;99.90
23102;DHT22;11720;51.214;22.574;2022-12-29T14:04:25;6.40;99.90
23102;DHT22;11720;51.214;22.574;2022-12-29T14:07:15;6.30;99.90
23102;DHT22;11720;51.214;22.574;2022-12-29T14:12:40;6.30;99.90
23102;DHT22;11720;51.214;22.574;2022-12-29T14:17:35;6.20;99.90
23102;DHT22;11720;51.214;22.574;2022-12-29T14:20:03;6.20;99.90
23102;DHT22;11720;51.214;22.574;2022-12-29T14:22:33;6.20;99.90
23102;DHT22;11720;51.214;22.574;2022-12-29T14:24:59;6.20;99.90
23102;DHT22;11720;51.214;22.574;2022-12-29T14:34:59;6.00;99.90
23102;DHT22;11720;51.214;22.574;2022-12-29T14:37:29;5.90;99.90
23102;DHT22;11720;51.214;22.574;2022-12-29T14:42:31;5.80;99.90
23102;DHT22;11720;51.214;22.574;2022-12-29T14:45:27;5.70;99.90
23102;DHT22;11720;51.214;22.574;2022-12-29T14:50:26;5.70;99.90
23102;DHT22;11720;51.214;22.574;2022-12-29T14:53:05;5.60;99.90
23102;DHT22;11720;51.214;22.574;2022-12-29T14:55:54;5.60;99.90
23102;DHT22;11720;51.214;22.574;2022-12-29T14:58:50;5.60;99.90
23102;DHT22;11720;51.214;22.574;2022-12-29T15:01:23;5.60;99.90
23102;DHT22;11720;51.214;22.574;2022-12-29T15:03:53;5.60;99.90
23102;DHT22;11720;51.214;22.574;2022-12-29T15:06:22;5.50;99.90
23102;DHT22;11720;51.214;22.574;2022-12-29T15:09:10;5.50;99.90
23102;DHT22;11720;51.214;22.574;2022-12-29T15:16:57;5.50;99.90
23102;DHT22;11720;51.214;22.574;2022-12-29T15:19:24;5.40;99.90
23102;DHT22;11720;51.214;22.574;2022-12-29T15:21:50;5.40;99.90
23102;DHT22;11720;51.214;22.574;2022-12-29T15:24:17;5.40;99.90
23102;DHT22;11720;51.214;22.574;2022-12-29T15:26:46;5.40;99.90
23102;DHT22;11720;51.214;22.574;2022-12-29T15:29:37;5.40;99.90
23102;DHT22;11720;51.214;22.574;2022-12-29T15:34:43;5.20;99.90
23102;DHT22;11720;51.214;22.574;2022-12-29T15:42:09;5.50;99.90
23102;DHT22;11720;51.214;22.574;2022-12-29T15:44:43;5.50;99.90
23102;DHT22;11720;51.214;22.574;2022-12-29T15:49:42;5.50;99.90
23102;DHT22;11720;51.214;22.574;2022-12-29T15:54:36;5.50;99.90
23102;DHT22;11720;51.214;22.574;2022-12-29T15:57:03;5.50;99.90
23102;DHT22;11720;51.214;22.574;2022-12-29T15:59:33;5.50;99.90
23102;DHT22;11720;51.214;22.574;2022-12-29T16:02:00;5.50;99.90
23102;DHT22;11720;51.214;22.574;2022-12-29T16:04:30;5.50;99.90
23102;DHT22;11720;51.214;22.574;2022-12-29T16:07:00;5.50;99.90
23102;DHT22;11720;51.214;22.574;2022-12-29T16:09:34;5.50;99.90
23102;DHT22;11720;51.214;22.574;2022-12-29T16:12:06;5.50;99.90
23102;DHT22;11720;51.214;22.574;2022-12-29T16:14:46;5.50;99.90
23102;DHT22;11720;51.214;22.574;2022-12-29T16:17:15;5.50;99.90
23102;DHT22;11720;51.214;22.574;2022-12-29T16:20:32;5.50;99.90
23102;DHT22;11720;51.214;22.574;2022-12-29T16:22:45;7.00;99.90
23102;DHT22;11720;51.214;22.574;2022-12-29T16:25:27;5.50;99.90
23102;DHT22;11720;51.214;22.574;2022-12-29T16:27:57;5.50;99.90
23102;DHT22;11720;51.214;22.574;2022-12-29T16:30:32;5.50;99.90
23102;DHT22;11720;51.214;22.574;2022-12-29T16:33:03;5.50;99.90
23102;DHT22;11720;51.214;22.574;2022-12-29T16:35:58;5.50;99.90
23102;DHT22;11720;51.214;22.574;2022-12-29T16:38:32;5.90;99.90
23102;DHT22;11720;51.214;22.574;2022-12-29T16:41:00;5.60;99.90
23102;DHT22;11720;51.214;22.574;2022-12-29T16:43:33;5.60;99.90
23102;DHT22;11720;51.214;22.574;2022-12-29T16:48:37;5.70;99.90
23102;DHT22;11720;51.214;22.574;2022-12-29T16:51:17;5.60;99.90
23102;DHT22;11720;51.214;22.574;2022-12-29T16:53:52;5.60;99.90
23102;DHT22;11720;51.214;22.574;2022-12-29T16:56:23;5.60;99.90
23102;DHT22;11720;51.214;22.574;2022-12-29T16:59:02;5.50;99.90
23102;DHT22;11720;51.214;22.574;2022-12-29T17:01:30;5.50;99.90
23102;DHT22;11720;51.214;22.574;2022-12-29T17:04:04;5.50;99.90
23102;DHT22;11720;51.214;22.574;2022-12-29T17:06:31;5.40;99.90
23102;DHT22;11720;51.214;22.574;2022-12-29T17:08:56;5.40;99.90
23102;DHT22;11720;51.214;22.574;2022-12-29T17:16:48;5.30;99.90
23102;DHT22;11720;51.214;22.574;2022-12-29T17:19:18;5.30;99.90
23102;DHT22;11720;51.214;22.574;2022-12-29T17:21:45;5.30;99.90
23102;DHT22;11720;51.214;22.574;2022-12-29T17:24:19;5.20;99.90
23102;DHT22;11720;51.214;22.574;2022-12-29T17:26:49;5.20;99.90
23102;DHT22;11720;51.214;22.574;2022-12-29T17:29:38;5.20;99.90
23102;DHT22;11720;51.214;22.574;2022-12-29T17:32:06;5.10;99.90
23102;DHT22;11720;51.214;22.574;2022-12-29T17:34:35;5.10;99.90
23102;DHT22;11720;51.214;22.574;2022-12-29T17:37:00;5.10;99.90
23102;DHT22;11720;51.214;22.574;2022-12-29T17:39:26;5.00;99.90
23102;DHT22;11720;51.214;22.574;2022-12-29T17:41:52;5.00;99.90
23102;DHT22;11720;51.214;22.574;2022-12-29T17:44:19;5.00;99.90
23102;DHT22;11720;51.214;22.574;2022-12-29T17:46:47;4.90;99.90
23102;DHT22;11720;51.214;22.574;2022-12-29T17:49:15;4.90;99.90
23102;DHT22;11720;51.214;22.574;2022-12-29T17:51:42;4.90;99.90
23102;DHT22;11720;51.214;22.574;2022-12-29T17:54:19;4.90;99.90
23102;DHT22;11720;51.214;22.574;2022-12-29T17:56:46;4.90;99.90
23102;DHT22;11720;51.214;22.574;2022-12-29T17:59:12;4.90;99.90
23102;DHT22;11720;51.214;22.574;2022-12-29T18:01:43;4.90;99.90
23102;DHT22;11720;51.214;22.574;2022-12-29T18:04:14;4.80;99.90
23102;DHT22;11720;51.214;22.574;2022-12-29T18:06:41;4.90;99.90
23102;DHT22;11720;51.214;22.574;2022-12-29T18:09:08;4.80;99.90
23102;DHT22;11720;51.214;22.574;2022-12-29T18:11:37;4.90;99.90
23102;DHT22;11720;51.214;22.574;2022-12-29T18:14:04;4.90;99.90
23102;DHT22;11720;51.214;22.574;2022-12-29T18:16:30;4.90;99.90
23102;DHT22;11720;51.214;22.574;2022-12-29T18:18:56;4.90;99.90
23102;DHT22;11720;51.214;22.574;2022-12-29T18:21:23;4.90;99.90
23102;DHT22;11720;51.214;22.574;2022-12-29T18:23:49;5.00;99.90
23102;DHT22;11720;51.214;22.574;2022-12-29T18:26:20;2.70;99.90
23102;DHT22;11720;51.214;22.574;2022-12-29T18:28:48;5.00;99.90
23102;DHT22;11720;51.214;22.574;2022-12-29T18:31:26;4.40;99.90
23102;DHT22;11720;51.214;22.574;2022-12-29T18:33:53;5.00;99.90
23102;DHT22;11720;51.214;22.574;2022-12-29T18:36:20;5.10;99.90
23102;DHT22;11720;51.214;22.574;2022-12-29T18:38:45;5.10;99.90
23102;DHT22;11720;51.214;22.574;2022-12-29T18:41:23;5.10;99.90
23102;DHT22;11720;51.214;22.574;2022-12-29T18:43:49;5.10;99.90
23102;DHT22;11720;51.214;22.574;2022-12-29T18:46:15;4.80;99.90
23102;DHT22;11720;51.214;22.574;2022-12-29T18:48:41;7.80;99.90
23102;DHT22;11720;51.214;22.574;2022-12-29T18:51:23;5.00;99.90
23102;DHT22;11720;51.214;22.574;2022-12-29T18:53:49;5.00;99.90
23102;DHT22;11720;51.214;22.574;2022-12-29T18:56:18;5.00;99.90
23102;DHT22;11720;51.214;22.574;2022-12-29T18:58:45;5.00;99.90
23102;DHT22;11720;51.214;22.574;2022-12-29T19:01:23;5.00;99.90
23102;DHT22;11720;51.214;22.574;2022-12-29T19:03:50;5.00;99.90
23102;DHT22;11720;51.214;22.574;2022-12-29T19:06:16;5.00;99.90
23102;DHT22;11720;51.214;22.574;2022-12-29T19:08:43;5.10;99.90
23102;DHT22;11720;51.214;22.574;2022-12-29T19:11:09;5.10;99.90
23102;DHT22;11720;51.214;22.574;2022-12-29T19:13:35;5.10;99.90
23102;DHT22;11720;51.214;22.574;2022-12-29T19:16:01;5.10;99.90